Terminal Aerodrome Forecast
Issued by NWS Chicago, IL

Home | Current Version | Previous Version | Text Only | Print | Product List | Glossary On
Versions: 1 2 3 4 5 6 7 8 9 10 11 12 13 14 15 16 17 18 19 20 21 22 23 24 25 26
679
FTUS43 KLOT 221725
TAFRFD
TAF
KRFD 221725Z 2218/2318 18008KT 2SM BR OVC007
      TEMPO 2218/2219 1/2SM FG OVC002
     FM222200 19009KT P6SM VCSH SCT015 BKN050
      TEMPO 2222/2301 3SM -SHRA BKN015
     FM230100 24008KT 3SM BR VCSH SCT007 OVC010
     FM230900 32015G22KT P6SM VCSH OVC020 PROB30 2309/2312 1SM -SN
      OVC007=

USA.gov is the U.S. government's official web portal to all federal, state and local government web resources and services.